SARI METAR and TAF weather

Enter ICAO airport designator
Station Type Date Time Source
SARI METAR 2020/01/22 18:00 UTC NOAA

SARI 221800Z 09008KT 9999 FEW040 OVC100 23/22 Q1006


Station Type Date Time Source
SARI Decoded METAR 2020/01/22 18:00 UTC NOAA

Iguazu Aerodrome, Argentina (SARI) 25-44S 054-28W 270M
Jan 22, 2020 - 01:00 PM EST / 2020.01.22 1800 UTC
Wind: from the E (090 degrees) at 9 MPH (8 KT):0
Visibility: greater than 7 mile(s):0
Sky conditions: overcast
Temperature: 73 F (23 C)
Dew Point: 71 F (22 C)
Relative Humidity: 94%
Pressure (altimeter): 29.71 in. Hg (1006 hPa)
ob: SARI 221800Z 09008KT 9999 FEW040 OVC100 23/22 Q1006
cycle: 18

Station Type Date Time Source
SARI TAF 2020/01/22 18:12 UTC NOAA

TAF SARI 221700Z 2218/2318 09005KT 8000 -RA SCT040 BKN100 TX28/2318Z TN19/2309Z
BECMG 2221/2223 9999 BKN025 BKN100 PROB30
TEMPO 2306/2312 5000 -RADZ OVC020
BECMG 2315/2317 CAVOK

Example: see airport list